sensor_id;sensor_type;location;lat;lon;timestamp;P1;durP1;ratioP1;P2;durP2;ratioP2
41653;SDS011;30790;52.030;7.110;2022-10-23T00:01:16;6.22;;;2.88;;
41653;SDS011;30790;52.030;7.110;2022-10-23T00:03:44;6.65;;;3.08;;
41653;SDS011;30790;52.030;7.110;2022-10-23T00:06:11;6.28;;;2.75;;
41653;SDS011;30790;52.030;7.110;2022-10-23T00:08:37;8.32;;;3.05;;
41653;SDS011;30790;52.030;7.110;2022-10-23T00:11:07;5.95;;;2.70;;
41653;SDS011;30790;52.030;7.110;2022-10-23T00:13:33;5.80;;;2.95;;
41653;SDS011;30790;52.030;7.110;2022-10-23T00:15:58;4.13;;;2.45;;
41653;SDS011;30790;52.030;7.110;2022-10-23T00:18:24;5.07;;;2.55;;
41653;SDS011;30790;52.030;7.110;2022-10-23T00:20:49;7.15;;;2.53;;
41653;SDS011;30790;52.030;7.110;2022-10-23T00:23:15;6.65;;;2.60;;
41653;SDS011;30790;52.030;7.110;2022-10-23T00:25:41;5.72;;;2.58;;
41653;SDS011;30790;52.030;7.110;2022-10-23T00:28:06;5.40;;;2.95;;
41653;SDS011;30790;52.030;7.110;2022-10-23T00:30:32;8.30;;;2.88;;
41653;SDS011;30790;52.030;7.110;2022-10-23T00:32:57;5.60;;;2.38;;
41653;SDS011;30790;52.030;7.110;2022-10-23T00:35:22;6.13;;;2.83;;
41653;SDS011;30790;52.030;7.110;2022-10-23T00:37:47;4.53;;;2.50;;
41653;SDS011;30790;52.030;7.110;2022-10-23T00:40:13;8.13;;;3.10;;
41653;SDS011;30790;52.030;7.110;2022-10-23T00:42:38;5.88;;;2.40;;
41653;SDS011;30790;52.030;7.110;2022-10-23T00:47:46;6.15;;;2.58;;
41653;SDS011;30790;52.030;7.110;2022-10-23T00:50:12;3.47;;;2.33;;
41653;SDS011;30790;52.030;7.110;2022-10-23T00:52:39;3.97;;;2.05;;
41653;SDS011;30790;52.030;7.110;2022-10-23T00:55:09;5.45;;;2.50;;
41653;SDS011;30790;52.030;7.110;2022-10-23T00:57:34;4.13;;;2.35;;
41653;SDS011;30790;52.030;7.110;2022-10-23T01:00:00;7.05;;;2.60;;
41653;SDS011;30790;52.030;7.110;2022-10-23T01:02:25;5.82;;;3.08;;
41653;SDS011;30790;52.030;7.110;2022-10-23T01:04:50;5.18;;;2.67;;
41653;SDS011;30790;52.030;7.110;2022-10-23T01:07:17;3.70;;;2.35;;
41653;SDS011;30790;52.030;7.110;2022-10-23T01:09:46;5.47;;;2.10;;
41653;SDS011;30790;52.030;7.110;2022-10-23T01:15:22;5.30;;;2.40;;
41653;SDS011;30790;52.030;7.110;2022-10-23T01:26:30;3.53;;;2.08;;
41653;SDS011;30790;52.030;7.110;2022-10-23T01:29:18;7.53;;;2.55;;
41653;SDS011;30790;52.030;7.110;2022-10-23T01:31:51;4.05;;;2.08;;
41653;SDS011;30790;52.030;7.110;2022-10-23T01:34:24;6.25;;;2.25;;
41653;SDS011;30790;52.030;7.110;2022-10-23T01:36:54;3.20;;;2.15;;
41653;SDS011;30790;52.030;7.110;2022-10-23T01:39:27;6.22;;;2.38;;
41653;SDS011;30790;52.030;7.110;2022-10-23T01:41:58;4.97;;;2.08;;
41653;SDS011;30790;52.030;7.110;2022-10-23T01:44:32;4.63;;;2.28;;
41653;SDS011;30790;52.030;7.110;2022-10-23T01:47:00;4.65;;;2.35;;
41653;SDS011;30790;52.030;7.110;2022-10-23T01:49:27;4.57;;;2.58;;
41653;SDS011;30790;52.030;7.110;2022-10-23T01:51:55;3.83;;;2.20;;
41653;SDS011;30790;52.030;7.110;2022-10-23T01:54:25;5.45;;;2.22;;
41653;SDS011;30790;52.030;7.110;2022-10-23T01:56:55;5.63;;;2.50;;
41653;SDS011;30790;52.030;7.110;2022-10-23T01:59:23;3.95;;;2.25;;
41653;SDS011;30790;52.030;7.110;2022-10-23T02:01:53;5.00;;;2.00;;
41653;SDS011;30790;52.030;7.110;2022-10-23T02:05:23;8.15;;;2.20;;
41653;SDS011;30790;52.030;7.110;2022-10-23T02:07:20;3.72;;;2.22;;
41653;SDS011;30790;52.030;7.110;2022-10-23T02:09:47;3.38;;;2.05;;
41653;SDS011;30790;52.030;7.110;2022-10-23T02:12:13;5.35;;;2.20;;
41653;SDS011;30790;52.030;7.110;2022-10-23T02:20:16;2.17;;;1.67;;
41653;SDS011;30790;52.030;7.110;2022-10-23T02:25:50;3.63;;;1.90;;
41653;SDS011;30790;52.030;7.110;2022-10-23T02:28:24;5.22;;;2.22;;
41653;SDS011;30790;52.030;7.110;2022-10-23T02:31:00;5.72;;;2.30;;
41653;SDS011;30790;52.030;7.110;2022-10-23T02:33:28;3.10;;;2.20;;
41653;SDS011;30790;52.030;7.110;2022-10-23T02:35:55;5.13;;;1.85;;
41653;SDS011;30790;52.030;7.110;2022-10-23T02:38:31;3.80;;;2.30;;
41653;SDS011;30790;52.030;7.110;2022-10-23T02:41:00;3.80;;;2.08;;
41653;SDS011;30790;52.030;7.110;2022-10-23T02:43:37;4.90;;;2.25;;
41653;SDS011;30790;52.030;7.110;2022-10-23T02:46:16;3.53;;;2.13;;
41653;SDS011;30790;52.030;7.110;2022-10-23T02:49:20;3.67;;;2.08;;
41653;SDS011;30790;52.030;7.110;2022-10-23T02:54:40;3.42;;;2.13;;
41653;SDS011;30790;52.030;7.110;2022-10-23T02:57:17;4.03;;;2.00;;
41653;SDS011;30790;52.030;7.110;2022-10-23T03:00:03;2.90;;;1.98;;
41653;SDS011;30790;52.030;7.110;2022-10-23T03:05:05;3.58;;;1.80;;
41653;SDS011;30790;52.030;7.110;2022-10-23T03:07:33;4.68;;;2.10;;
41653;SDS011;30790;52.030;7.110;2022-10-23T03:10:00;2.95;;;1.98;;
41653;SDS011;30790;52.030;7.110;2022-10-23T03:12:25;4.25;;;2.63;;
41653;SDS011;30790;52.030;7.110;2022-10-23T03:14:50;3.80;;;2.38;;
41653;SDS011;30790;52.030;7.110;2022-10-23T03:17:15;2.50;;;1.80;;
41653;SDS011;30790;52.030;7.110;2022-10-23T03:19:41;2.33;;;1.80;;
41653;SDS011;30790;52.030;7.110;2022-10-23T03:22:06;2.65;;;1.90;;
41653;SDS011;30790;52.030;7.110;2022-10-23T03:24:31;4.18;;;2.08;;
41653;SDS011;30790;52.030;7.110;2022-10-23T03:26:57;3.80;;;1.73;;
41653;SDS011;30790;52.030;7.110;2022-10-23T03:29:22;3.00;;;1.77;;
41653;SDS011;30790;52.030;7.110;2022-10-23T03:31:47;3.93;;;2.10;;
41653;SDS011;30790;52.030;7.110;2022-10-23T03:34:12;3.58;;;2.15;;
41653;SDS011;30790;52.030;7.110;2022-10-23T03:36:39;3.80;;;2.10;;
41653;SDS011;30790;52.030;7.110;2022-10-23T03:39:04;3.80;;;2.00;;
41653;SDS011;30790;52.030;7.110;2022-10-23T03:41:30;3.35;;;1.80;;
41653;SDS011;30790;52.030;7.110;2022-10-23T03:43:56;3.40;;;1.88;;
41653;SDS011;30790;52.030;7.110;2022-10-23T03:46:21;3.45;;;1.95;;
41653;SDS011;30790;52.030;7.110;2022-10-23T03:48:46;3.97;;;2.05;;
41653;SDS011;30790;52.030;7.110;2022-10-23T03:51:12;2.88;;;1.95;;
41653;SDS011;30790;52.030;7.110;2022-10-23T03:53:37;3.17;;;1.80;;
41653;SDS011;30790;52.030;7.110;2022-10-23T03:56:03;2.80;;;2.10;;
41653;SDS011;30790;52.030;7.110;2022-10-23T03:58:28;3.25;;;1.75;;
41653;SDS011;30790;52.030;7.110;2022-10-23T04:00:55;4.00;;;1.90;;
41653;SDS011;30790;52.030;7.110;2022-10-23T04:03:21;4.60;;;2.40;;
41653;SDS011;30790;52.030;7.110;2022-10-23T04:05:46;4.75;;;2.28;;
41653;SDS011;30790;52.030;7.110;2022-10-23T04:08:11;2.45;;;1.80;;
41653;SDS011;30790;52.030;7.110;2022-10-23T04:10:37;3.78;;;1.73;;
41653;SDS011;30790;52.030;7.110;2022-10-23T04:13:02;2.85;;;1.60;;
41653;SDS011;30790;52.030;7.110;2022-10-23T04:15:27;3.47;;;1.92;;
41653;SDS011;30790;52.030;7.110;2022-10-23T04:17:52;3.83;;;2.30;;
41653;SDS011;30790;52.030;7.110;2022-10-23T04:20:18;3.30;;;1.73;;
41653;SDS011;30790;52.030;7.110;2022-10-23T04:22:43;3.35;;;2.10;;
41653;SDS011;30790;52.030;7.110;2022-10-23T04:25:08;2.00;;;1.63;;
41653;SDS011;30790;52.030;7.110;2022-10-23T04:27:33;2.47;;;1.60;;
41653;SDS011;30790;52.030;7.110;2022-10-23T04:29:59;3.78;;;1.88;;
41653;SDS011;30790;52.030;7.110;2022-10-23T04:32:24;4.25;;;2.08;;
41653;SDS011;30790;52.030;7.110;2022-10-23T04:34:50;2.83;;;2.00;;
41653;SDS011;30790;52.030;7.110;2022-10-23T04:37:15;2.75;;;1.90;;
41653;SDS011;30790;52.030;7.110;2022-10-23T04:39:40;3.72;;;1.77;;
41653;SDS011;30790;52.030;7.110;2022-10-23T04:42:06;3.03;;;1.53;;
41653;SDS011;30790;52.030;7.110;2022-10-23T04:44:31;2.97;;;1.63;;
41653;SDS011;30790;52.030;7.110;2022-10-23T04:46:56;2.70;;;1.85;;
41653;SDS011;30790;52.030;7.110;2022-10-23T04:49:21;2.85;;;1.65;;
41653;SDS011;30790;52.030;7.110;2022-10-23T04:51:47;3.58;;;2.10;;
41653;SDS011;30790;52.030;7.110;2022-10-23T04:54:12;3.03;;;1.83;;
41653;SDS011;30790;52.030;7.110;2022-10-23T04:56:37;2.40;;;1.63;;
41653;SDS011;30790;52.030;7.110;2022-10-23T04:59:03;4.18;;;2.03;;
41653;SDS011;30790;52.030;7.110;2022-10-23T05:01:28;4.30;;;1.83;;
41653;SDS011;30790;52.030;7.110;2022-10-23T05:03:53;2.22;;;1.65;;
41653;SDS011;30790;52.030;7.110;2022-10-23T05:06:20;3.00;;;1.60;;
41653;SDS011;30790;52.030;7.110;2022-10-23T05:08:45;3.88;;;1.77;;
41653;SDS011;30790;52.030;7.110;2022-10-23T05:11:11;4.93;;;1.63;;
41653;SDS011;30790;52.030;7.110;2022-10-23T05:13:36;2.60;;;1.70;;
41653;SDS011;30790;52.030;7.110;2022-10-23T05:16:01;2.00;;;1.40;;
41653;SDS011;30790;52.030;7.110;2022-10-23T05:18:31;3.22;;;1.80;;
41653;SDS011;30790;52.030;7.110;2022-10-23T05:21:01;2.67;;;1.48;;
41653;SDS011;30790;52.030;7.110;2022-10-23T05:23:31;2.83;;;1.77;;
41653;SDS011;30790;52.030;7.110;2022-10-23T05:25:59;1.95;;;1.50;;
41653;SDS011;30790;52.030;7.110;2022-10-23T05:28:27;2.10;;;1.52;;
41653;SDS011;30790;52.030;7.110;2022-10-23T05:30:52;2.42;;;1.65;;
41653;SDS011;30790;52.030;7.110;2022-10-23T05:33:18;2.95;;;1.40;;
41653;SDS011;30790;52.030;7.110;2022-10-23T05:35:43;1.60;;;1.40;;
41653;SDS011;30790;52.030;7.110;2022-10-23T05:38:09;2.88;;;1.88;;
41653;SDS011;30790;52.030;7.110;2022-10-23T05:40:35;2.63;;;1.20;;
41653;SDS011;30790;52.030;7.110;2022-10-23T05:43:00;3.63;;;1.92;;
41653;SDS011;30790;52.030;7.110;2022-10-23T05:45:26;8.10;;;4.15;;
41653;SDS011;30790;52.030;7.110;2022-10-23T05:47:51;33.30;;;16.52;;
41653;SDS011;30790;52.030;7.110;2022-10-23T05:50:17;25.13;;;9.05;;
41653;SDS011;30790;52.030;7.110;2022-10-23T05:52:45;22.33;;;7.18;;
41653;SDS011;30790;52.030;7.110;2022-10-23T05:55:11;16.48;;;7.35;;
41653;SDS011;30790;52.030;7.110;2022-10-23T05:57:36;25.10;;;6.45;;
41653;SDS011;30790;52.030;7.110;2022-10-23T06:00:02;27.63;;;7.35;;
41653;SDS011;30790;52.030;7.110;2022-10-23T06:02:28;34.10;;;7.75;;
41653;SDS011;30790;52.030;7.110;2022-10-23T06:04:53;40.95;;;7.97;;
41653;SDS011;30790;52.030;7.110;2022-10-23T06:07:22;32.90;;;6.65;;
41653;SDS011;30790;52.030;7.110;2022-10-23T06:09:49;52.55;;;9.88;;
41653;SDS011;30790;52.030;7.110;2022-10-23T06:12:14;40.22;;;7.53;;
41653;SDS011;30790;52.030;7.110;2022-10-23T06:14:39;41.88;;;7.35;;
41653;SDS011;30790;52.030;7.110;2022-10-23T06:17:05;33.47;;;6.27;;
41653;SDS011;30790;52.030;7.110;2022-10-23T06:19:30;36.08;;;7.35;;
41653;SDS011;30790;52.030;7.110;2022-10-23T06:21:55;32.83;;;6.78;;
41653;SDS011;30790;52.030;7.110;2022-10-23T06:24:21;41.87;;;6.63;;
41653;SDS011;30790;52.030;7.110;2022-10-23T06:26:46;33.88;;;6.82;;
41653;SDS011;30790;52.030;7.110;2022-10-23T06:29:11;32.05;;;6.22;;
41653;SDS011;30790;52.030;7.110;2022-10-23T06:31:36;45.45;;;7.80;;
41653;SDS011;30790;52.030;7.110;2022-10-23T06:34:02;23.83;;;6.68;;
41653;SDS011;30790;52.030;7.110;2022-10-23T06:36:27;34.38;;;6.75;;
41653;SDS011;30790;52.030;7.110;2022-10-23T06:38:52;34.92;;;6.43;;
41653;SDS011;30790;52.030;7.110;2022-10-23T06:41:20;26.88;;;5.65;;
41653;SDS011;30790;52.030;7.110;2022-10-23T06:43:46;28.23;;;6.35;;
41653;SDS011;30790;52.030;7.110;2022-10-23T06:46:13;27.23;;;6.57;;
41653;SDS011;30790;52.030;7.110;2022-10-23T06:48:40;31.85;;;6.25;;
41653;SDS011;30790;52.030;7.110;2022-10-23T06:51:06;32.65;;;6.28;;
41653;SDS011;30790;52.030;7.110;2022-10-23T06:53:34;21.33;;;5.90;;
41653;SDS011;30790;52.030;7.110;2022-10-23T06:56:00;35.00;;;6.25;;
41653;SDS011;30790;52.030;7.110;2022-10-23T06:58:27;30.85;;;6.07;;
41653;SDS011;30790;52.030;7.110;2022-10-23T07:00:52;30.33;;;6.50;;
41653;SDS011;30790;52.030;7.110;2022-10-23T07:03:18;44.88;;;6.90;;
41653;SDS011;30790;52.030;7.110;2022-10-23T07:05:43;26.35;;;5.07;;
41653;SDS011;30790;52.030;7.110;2022-10-23T07:08:09;40.95;;;6.10;;
41653;SDS011;30790;52.030;7.110;2022-10-23T07:10:34;30.80;;;6.45;;
41653;SDS011;30790;52.030;7.110;2022-10-23T07:12:59;33.53;;;6.78;;
41653;SDS011;30790;52.030;7.110;2022-10-23T07:15:25;33.97;;;6.45;;
41653;SDS011;30790;52.030;7.110;2022-10-23T07:17:51;29.27;;;5.68;;
41653;SDS011;30790;52.030;7.110;2022-10-23T07:20:17;34.60;;;6.40;;
41653;SDS011;30790;52.030;7.110;2022-10-23T07:22:42;25.98;;;5.72;;
41653;SDS011;30790;52.030;7.110;2022-10-23T07:25:07;20.20;;;4.80;;
41653;SDS011;30790;52.030;7.110;2022-10-23T07:27:35;29.90;;;5.93;;
41653;SDS011;30790;52.030;7.110;2022-10-23T07:30:01;23.13;;;5.05;;
41653;SDS011;30790;52.030;7.110;2022-10-23T07:32:27;22.75;;;5.25;;
41653;SDS011;30790;52.030;7.110;2022-10-23T07:34:52;34.20;;;5.18;;
41653;SDS011;30790;52.030;7.110;2022-10-23T07:37:17;24.33;;;4.95;;
41653;SDS011;30790;52.030;7.110;2022-10-23T07:39:43;34.88;;;5.32;;
41653;SDS011;30790;52.030;7.110;2022-10-23T07:42:08;16.25;;;4.55;;
41653;SDS011;30790;52.030;7.110;2022-10-23T07:44:33;23.42;;;5.38;;
41653;SDS011;30790;52.030;7.110;2022-10-23T07:46:59;21.77;;;5.37;;
41653;SDS011;30790;52.030;7.110;2022-10-23T07:49:25;28.17;;;4.93;;
41653;SDS011;30790;52.030;7.110;2022-10-23T07:51:50;19.33;;;4.32;;
41653;SDS011;30790;52.030;7.110;2022-10-23T07:54:17;18.48;;;4.40;;
41653;SDS011;30790;52.030;7.110;2022-10-23T07:56:43;16.50;;;4.70;;
41653;SDS011;30790;52.030;7.110;2022-10-23T07:59:10;14.00;;;4.10;;
41653;SDS011;30790;52.030;7.110;2022-10-23T08:01:36;17.13;;;4.32;;
41653;SDS011;30790;52.030;7.110;2022-10-23T08:04:02;22.08;;;5.57;;
41653;SDS011;30790;52.030;7.110;2022-10-23T08:06:28;18.77;;;4.07;;
41653;SDS011;30790;52.030;7.110;2022-10-23T08:08:53;15.38;;;3.97;;
41653;SDS011;30790;52.030;7.110;2022-10-23T08:11:19;22.25;;;4.45;;
41653;SDS011;30790;52.030;7.110;2022-10-23T08:13:56;21.25;;;4.75;;
41653;SDS011;30790;52.030;7.110;2022-10-23T08:16:23;15.35;;;4.13;;
41653;SDS011;30790;52.030;7.110;2022-10-23T08:18:49;17.52;;;3.72;;
41653;SDS011;30790;52.030;7.110;2022-10-23T08:21:15;17.42;;;4.22;;
41653;SDS011;30790;52.030;7.110;2022-10-23T08:23:42;15.68;;;3.55;;
41653;SDS011;30790;52.030;7.110;2022-10-23T08:26:08;16.92;;;4.22;;
41653;SDS011;30790;52.030;7.110;2022-10-23T08:28:34;12.27;;;4.07;;
41653;SDS011;30790;52.030;7.110;2022-10-23T08:31:05;14.98;;;4.25;;
41653;SDS011;30790;52.030;7.110;2022-10-23T08:33:38;14.38;;;4.28;;
41653;SDS011;30790;52.030;7.110;2022-10-23T08:36:04;13.13;;;4.68;;
41653;SDS011;30790;52.030;7.110;2022-10-23T08:38:29;15.48;;;4.10;;
41653;SDS011;30790;52.030;7.110;2022-10-23T08:40:55;24.25;;;4.40;;
41653;SDS011;30790;52.030;7.110;2022-10-23T08:45:57;20.95;;;4.50;;
41653;SDS011;30790;52.030;7.110;2022-10-23T08:51:16;13.73;;;4.40;;
41653;SDS011;30790;52.030;7.110;2022-10-23T08:53:55;25.73;;;4.88;;
41653;SDS011;30790;52.030;7.110;2022-10-23T08:56:27;22.50;;;4.80;;
41653;SDS011;30790;52.030;7.110;2022-10-23T08:59:03;14.88;;;3.78;;
41653;SDS011;30790;52.030;7.110;2022-10-23T09:01:40;12.00;;;3.92;;
41653;SDS011;30790;52.030;7.110;2022-10-23T09:04:10;13.90;;;3.92;;
41653;SDS011;30790;52.030;7.110;2022-10-23T09:12:27;8.98;;;3.45;;
41653;SDS011;30790;52.030;7.110;2022-10-23T09:17:39;17.90;;;3.90;;
41653;SDS011;30790;52.030;7.110;2022-10-23T09:22:44;15.27;;;4.63;;
41653;SDS011;30790;52.030;7.110;2022-10-23T09:25:10;15.05;;;3.60;;
41653;SDS011;30790;52.030;7.110;2022-10-23T09:27:51;14.38;;;3.67;;
41653;SDS011;30790;52.030;7.110;2022-10-23T09:30:34;14.52;;;3.88;;
41653;SDS011;30790;52.030;7.110;2022-10-23T09:33:12;14.60;;;3.85;;
41653;SDS011;30790;52.030;7.110;2022-10-23T09:35:49;12.98;;;3.58;;
41653;SDS011;30790;52.030;7.110;2022-10-23T09:38:27;8.63;;;3.65;;
41653;SDS011;30790;52.030;7.110;2022-10-23T09:43:58;13.30;;;4.05;;
41653;SDS011;30790;52.030;7.110;2022-10-23T09:46:45;11.60;;;3.53;;
41653;SDS011;30790;52.030;7.110;2022-10-23T09:49:16;13.27;;;3.42;;
41653;SDS011;30790;52.030;7.110;2022-10-23T09:54:35;12.35;;;3.63;;
41653;SDS011;30790;52.030;7.110;2022-10-23T09:57:21;9.50;;;2.60;;
41653;SDS011;30790;52.030;7.110;2022-10-23T10:00:01;8.80;;;3.50;;
41653;SDS011;30790;52.030;7.110;2022-10-23T10:05:52;14.88;;;3.45;;
41653;SDS011;30790;52.030;7.110;2022-10-23T10:11:27;10.20;;;3.60;;
41653;SDS011;30790;52.030;7.110;2022-10-23T10:16:52;10.43;;;3.20;;
41653;SDS011;30790;52.030;7.110;2022-10-23T10:28:23;20.85;;;4.45;;
41653;SDS011;30790;52.030;7.110;2022-10-23T10:30:59;29.08;;;5.32;;
41653;SDS011;30790;52.030;7.110;2022-10-23T10:36:40;48.80;;;6.55;;
41653;SDS011;30790;52.030;7.110;2022-10-23T10:42:02;63.65;;;8.70;;
41653;SDS011;30790;52.030;7.110;2022-10-23T10:44:49;53.22;;;8.35;;
41653;SDS011;30790;52.030;7.110;2022-10-23T10:47:30;65.13;;;8.18;;
41653;SDS011;30790;52.030;7.110;2022-10-23T10:50:06;53.85;;;8.52;;
41653;SDS011;30790;52.030;7.110;2022-10-23T10:58:16;62.17;;;8.45;;
41653;SDS011;30790;52.030;7.110;2022-10-23T11:00:48;50.15;;;7.22;;
41653;SDS011;30790;52.030;7.110;2022-10-23T11:03:26;59.42;;;8.23;;
41653;SDS011;30790;52.030;7.110;2022-10-23T11:05:57;67.63;;;8.88;;
41653;SDS011;30790;52.030;7.110;2022-10-23T11:08:29;52.40;;;8.77;;
41653;SDS011;30790;52.030;7.110;2022-10-23T11:11:01;53.97;;;7.90;;
41653;SDS011;30790;52.030;7.110;2022-10-23T11:13:37;53.95;;;7.10;;
41653;SDS011;30790;52.030;7.110;2022-10-23T11:16:13;41.20;;;7.22;;
41653;SDS011;30790;52.030;7.110;2022-10-23T11:19:00;57.95;;;8.35;;
41653;SDS011;30790;52.030;7.110;2022-10-23T11:21:41;49.53;;;6.60;;
41653;SDS011;30790;52.030;7.110;2022-10-23T11:30:00;43.47;;;6.03;;
41653;SDS011;30790;52.030;7.110;2022-10-23T11:38:09;38.15;;;6.10;;
41653;SDS011;30790;52.030;7.110;2022-10-23T11:40:48;35.03;;;6.57;;
41653;SDS011;30790;52.030;7.110;2022-10-23T11:48:47;30.42;;;5.75;;
41653;SDS011;30790;52.030;7.110;2022-10-23T11:51:30;26.35;;;5.53;;
41653;SDS011;30790;52.030;7.110;2022-10-23T11:57:21;24.30;;;5.13;;
41653;SDS011;30790;52.030;7.110;2022-10-23T11:59:49;32.75;;;5.80;;
41653;SDS011;30790;52.030;7.110;2022-10-23T12:04:50;26.15;;;6.05;;
41653;SDS011;30790;52.030;7.110;2022-10-23T12:07:22;24.15;;;5.13;;
41653;SDS011;30790;52.030;7.110;2022-10-23T12:09:55;26.13;;;6.07;;
41653;SDS011;30790;52.030;7.110;2022-10-23T12:12:34;27.90;;;5.00;;
41653;SDS011;30790;52.030;7.110;2022-10-23T12:15:08;28.98;;;4.95;;
41653;SDS011;30790;52.030;7.110;2022-10-23T12:17:43;25.58;;;5.38;;
41653;SDS011;30790;52.030;7.110;2022-10-23T12:28:43;22.25;;;5.13;;
41653;SDS011;30790;52.030;7.110;2022-10-23T12:39:36;25.38;;;5.43;;
41653;SDS011;30790;52.030;7.110;2022-10-23T12:42:03;23.88;;;4.38;;
41653;SDS011;30790;52.030;7.110;2022-10-23T12:44:30;22.88;;;4.70;;
41653;SDS011;30790;52.030;7.110;2022-10-23T12:46:56;25.15;;;4.40;;
41653;SDS011;30790;52.030;7.110;2022-10-23T12:49:24;20.50;;;4.75;;
41653;SDS011;30790;52.030;7.110;2022-10-23T12:54:21;21.98;;;4.88;;
41653;SDS011;30790;52.030;7.110;2022-10-23T12:56:47;23.75;;;4.80;;
41653;SDS011;30790;52.030;7.110;2022-10-23T12:59:16;18.40;;;4.70;;
41653;SDS011;30790;52.030;7.110;2022-10-23T13:01:47;26.02;;;5.05;;
41653;SDS011;30790;52.030;7.110;2022-10-23T13:04:20;21.33;;;3.85;;
41653;SDS011;30790;52.030;7.110;2022-10-23T13:06:46;19.20;;;4.47;;
41653;SDS011;30790;52.030;7.110;2022-10-23T13:09:17;12.65;;;4.50;;
41653;SDS011;30790;52.030;7.110;2022-10-23T13:11:47;16.35;;;4.43;;
41653;SDS011;30790;52.030;7.110;2022-10-23T13:14:13;24.08;;;5.00;;
41653;SDS011;30790;52.030;7.110;2022-10-23T13:16:38;20.50;;;4.65;;
41653;SDS011;30790;52.030;7.110;2022-10-23T13:19:04;21.90;;;4.65;;
41653;SDS011;30790;52.030;7.110;2022-10-23T13:21:29;21.88;;;4.60;;
41653;SDS011;30790;52.030;7.110;2022-10-23T13:23:54;13.45;;;4.35;;
41653;SDS011;30790;52.030;7.110;2022-10-23T13:29:28;18.45;;;4.50;;
41653;SDS011;30790;52.030;7.110;2022-10-23T13:32:07;14.43;;;3.90;;
41653;SDS011;30790;52.030;7.110;2022-10-23T13:34:34;13.57;;;4.10;;
41653;SDS011;30790;52.030;7.110;2022-10-23T13:37:20;15.15;;;3.92;;
41653;SDS011;30790;52.030;7.110;2022-10-23T13:39:58;16.67;;;3.88;;
41653;SDS011;30790;52.030;7.110;2022-10-23T13:42:28;11.05;;;4.18;;
41653;SDS011;30790;52.030;7.110;2022-10-23T13:44:54;20.05;;;3.40;;
41653;SDS011;30790;52.030;7.110;2022-10-23T13:47:19;14.77;;;3.78;;
41653;SDS011;30790;52.030;7.110;2022-10-23T13:49:45;14.43;;;3.88;;
41653;SDS011;30790;52.030;7.110;2022-10-23T13:52:12;18.08;;;4.15;;
41653;SDS011;30790;52.030;7.110;2022-10-23T13:54:40;15.23;;;3.88;;
41653;SDS011;30790;52.030;7.110;2022-10-23T13:57:09;12.95;;;3.92;;
41653;SDS011;30790;52.030;7.110;2022-10-23T13:59:38;18.05;;;4.00;;
41653;SDS011;30790;52.030;7.110;2022-10-23T14:02:08;13.25;;;3.45;;
41653;SDS011;30790;52.030;7.110;2022-10-23T14:04:41;11.07;;;3.20;;
41653;SDS011;30790;52.030;7.110;2022-10-23T14:07:07;13.15;;;3.92;;
41653;SDS011;30790;52.030;7.110;2022-10-23T14:09:32;15.77;;;4.07;;
41653;SDS011;30790;52.030;7.110;2022-10-23T14:11:57;14.20;;;3.53;;
41653;SDS011;30790;52.030;7.110;2022-10-23T14:14:22;16.58;;;3.83;;
41653;SDS011;30790;52.030;7.110;2022-10-23T14:16:48;14.70;;;4.13;;
41653;SDS011;30790;52.030;7.110;2022-10-23T14:19:13;10.05;;;2.67;;
41653;SDS011;30790;52.030;7.110;2022-10-23T14:21:38;14.95;;;3.80;;
41653;SDS011;30790;52.030;7.110;2022-10-23T14:24:03;10.55;;;3.35;;
41653;SDS011;30790;52.030;7.110;2022-10-23T14:26:29;9.70;;;3.60;;
41653;SDS011;30790;52.030;7.110;2022-10-23T14:28:55;10.98;;;4.22;;
41653;SDS011;30790;52.030;7.110;2022-10-23T14:31:22;12.00;;;3.75;;
41653;SDS011;30790;52.030;7.110;2022-10-23T14:33:52;7.15;;;3.58;;
41653;SDS011;30790;52.030;7.110;2022-10-23T14:36:21;8.40;;;3.45;;
41653;SDS011;30790;52.030;7.110;2022-10-23T14:38:47;7.63;;;3.05;;
41653;SDS011;30790;52.030;7.110;2022-10-23T14:41:13;8.02;;;3.28;;
41653;SDS011;30790;52.030;7.110;2022-10-23T14:43:39;13.93;;;3.88;;
41653;SDS011;30790;52.030;7.110;2022-10-23T14:46:13;15.10;;;3.58;;
41653;SDS011;30790;52.030;7.110;2022-10-23T14:48:40;9.23;;;2.95;;
41653;SDS011;30790;52.030;7.110;2022-10-23T14:51:13;6.50;;;3.17;;
41653;SDS011;30790;52.030;7.110;2022-10-23T14:53:44;10.65;;;3.53;;
41653;SDS011;30790;52.030;7.110;2022-10-23T14:56:10;11.98;;;3.20;;
41653;SDS011;30790;52.030;7.110;2022-10-23T14:58:35;9.25;;;2.90;;
41653;SDS011;30790;52.030;7.110;2022-10-23T15:01:01;6.93;;;3.00;;
41653;SDS011;30790;52.030;7.110;2022-10-23T15:03:26;10.85;;;3.55;;
41653;SDS011;30790;52.030;7.110;2022-10-23T15:05:53;11.80;;;3.55;;
41653;SDS011;30790;52.030;7.110;2022-10-23T15:08:19;6.80;;;3.38;;
41653;SDS011;30790;52.030;7.110;2022-10-23T15:10:45;8.05;;;3.10;;
41653;SDS011;30790;52.030;7.110;2022-10-23T15:13:10;13.25;;;3.10;;
41653;SDS011;30790;52.030;7.110;2022-10-23T15:15:36;11.07;;;3.07;;
41653;SDS011;30790;52.030;7.110;2022-10-23T15:18:01;8.60;;;3.30;;
41653;SDS011;30790;52.030;7.110;2022-10-23T15:20:26;8.23;;;3.05;;
41653;SDS011;30790;52.030;7.110;2022-10-23T15:22:52;5.93;;;2.85;;
41653;SDS011;30790;52.030;7.110;2022-10-23T15:25:17;7.38;;;2.97;;
41653;SDS011;30790;52.030;7.110;2022-10-23T15:27:42;13.02;;;3.13;;
41653;SDS011;30790;52.030;7.110;2022-10-23T15:30:07;7.18;;;3.00;;
41653;SDS011;30790;52.030;7.110;2022-10-23T15:32:33;7.35;;;3.05;;
41653;SDS011;30790;52.030;7.110;2022-10-23T15:34:58;8.55;;;2.63;;
41653;SDS011;30790;52.030;7.110;2022-10-23T15:37:24;13.55;;;2.80;;
41653;SDS011;30790;52.030;7.110;2022-10-23T15:39:49;9.50;;;2.90;;
41653;SDS011;30790;52.030;7.110;2022-10-23T15:42:15;6.03;;;3.22;;
41653;SDS011;30790;52.030;7.110;2022-10-23T15:44:42;9.38;;;2.70;;
41653;SDS011;30790;52.030;7.110;2022-10-23T15:47:08;7.85;;;2.60;;
41653;SDS011;30790;52.030;7.110;2022-10-23T15:49:33;7.35;;;2.72;;
41653;SDS011;30790;52.030;7.110;2022-10-23T15:51:59;7.15;;;2.38;;
41653;SDS011;30790;52.030;7.110;2022-10-23T15:54:24;5.43;;;2.28;;
41653;SDS011;30790;52.030;7.110;2022-10-23T15:56:50;4.95;;;2.50;;
41653;SDS011;30790;52.030;7.110;2022-10-23T15:59:19;9.27;;;3.03;;
41653;SDS011;30790;52.030;7.110;2022-10-23T16:01:46;6.93;;;2.90;;
41653;SDS011;30790;52.030;7.110;2022-10-23T16:04:12;6.72;;;2.67;;
41653;SDS011;30790;52.030;7.110;2022-10-23T16:06:37;7.20;;;2.80;;
41653;SDS011;30790;52.030;7.110;2022-10-23T16:09:02;9.10;;;3.10;;
41653;SDS011;30790;52.030;7.110;2022-10-23T16:11:29;6.15;;;2.67;;
41653;SDS011;30790;52.030;7.110;2022-10-23T16:13:57;6.13;;;2.50;;
41653;SDS011;30790;52.030;7.110;2022-10-23T16:16:23;10.32;;;2.60;;
41653;SDS011;30790;52.030;7.110;2022-10-23T16:18:49;6.70;;;2.17;;
41653;SDS011;30790;52.030;7.110;2022-10-23T16:21:15;10.93;;;2.97;;
41653;SDS011;30790;52.030;7.110;2022-10-23T16:23:41;7.50;;;2.63;;
41653;SDS011;30790;52.030;7.110;2022-10-23T16:26:06;11.57;;;2.50;;
41653;SDS011;30790;52.030;7.110;2022-10-23T16:28:31;11.20;;;2.85;;
41653;SDS011;30790;52.030;7.110;2022-10-23T16:30:57;13.15;;;3.15;;
41653;SDS011;30790;52.030;7.110;2022-10-23T16:33:22;7.13;;;2.30;;
41653;SDS011;30790;52.030;7.110;2022-10-23T16:35:48;12.75;;;2.67;;
41653;SDS011;30790;52.030;7.110;2022-10-23T16:38:13;10.47;;;2.77;;
41653;SDS011;30790;52.030;7.110;2022-10-23T16:40:38;11.07;;;2.80;;
41653;SDS011;30790;52.030;7.110;2022-10-23T16:43:03;14.88;;;3.20;;
41653;SDS011;30790;52.030;7.110;2022-10-23T16:45:29;8.35;;;2.90;;
41653;SDS011;30790;52.030;7.110;2022-10-23T16:47:54;11.00;;;2.78;;
41653;SDS011;30790;52.030;7.110;2022-10-23T16:50:19;14.80;;;2.83;;
41653;SDS011;30790;52.030;7.110;2022-10-23T16:52:45;7.82;;;2.58;;